| time (UTC) | temp F | wind direction | speed knots | gust knots | rain 1hr in | rain 24hr in | rain mn in | humidity % | barometer mb |
| 20260502233250 | 87 | 130 | 13.9 | 0.0 | 0.00 | 0.00 | 0.00 | 58 | 1008.0 |
| 20260502232249 | 93 | 120 | 13.0 | 0.0 | 0.00 | 0.00 | 0.00 | 42 | 1007.0 |
| 20260502231249 | 93 | 120 | 13.0 | 0.0 | 0.00 | 0.00 | 0.00 | 42 | 1007.0 |
| 20260502230249 | 93 | 120 | 13.0 | 0.0 | 0.00 | 0.00 | 0.00 | 42 | 1007.0 |
| 20260502225248 | 93 | 120 | 13.0 | 0.0 | 0.00 | 0.00 | 0.00 | 42 | 1007.0 |
| 20260502224247 | 93 | 120 | 13.0 | 0.0 | 0.00 | 0.00 | 0.00 | 42 | 1007.0 |
| 20260502223247 | 93 | 120 | 13.0 | 0.0 | 0.00 | 0.00 | 0.00 | 42 | 1007.0 |
| 20260502222247 | 93 | 120 | 13.0 | 0.0 | 0.00 | 0.00 | 0.00 | 42 | 1007.0 |
| 20260502221247 | 94 | 120 | 13.9 | 0.0 | 0.00 | 0.00 | 0.00 | 42 | 1007.0 |
| 20260502220246 | 94 | 120 | 13.9 | 0.0 | 0.00 | 0.00 | 0.00 | 42 | 1007.0 |
| 20260502215246 | 94 | 120 | 13.9 | 0.0 | 0.00 | 0.00 | 0.00 | 41 | 1007.0 |
| 20260502214245 | 94 | 120 | 13.9 | 0.0 | 0.00 | 0.00 | 0.00 | 42 | 1007.0 |
| 20260502213245 | 94 | 120 | 13.9 | 0.0 | 0.00 | 0.00 | 0.00 | 42 | 1007.0 |
| 20260502212245 | 94 | 120 | 9.6 | 0.0 | 0.00 | 0.00 | 0.00 | 43 | 1007.0 |
| 20260502211244 | 94 | 120 | 9.6 | 0.0 | 0.00 | 0.00 | 0.00 | 43 | 1007.0 |
| 20260502210244 | 94 | 120 | 9.6 | 0.0 | 0.00 | 0.00 | 0.00 | 43 | 1007.0 |
| 20260502205243 | 94 | 120 | 9.6 | 0.0 | 0.00 | 0.00 | 0.00 | 43 | 1007.0 |
| 20260502204243 | 94 | 120 | 9.6 | 0.0 | 0.00 | 0.00 | 0.00 | 43 | 1007.0 |
| 20260502203243 | 94 | 120 | 9.6 | 0.0 | 0.00 | 0.00 | 0.00 | 43 | 1007.0 |
| 20260502202243 | 94 | 120 | 9.6 | 0.0 | 0.00 | 0.00 | 0.00 | 43 | 1007.0 |
| 20260502201242 | 94 | 90 | 7.0 | 0.0 | 0.00 | 0.00 | 0.00 | 43 | 1007.0 |
| 20260502200242 | 94 | 90 | 7.0 | 0.0 | 0.00 | 0.00 | 0.00 | 43 | 1007.0 |
| 20260502195242 | 94 | 90 | 7.0 | 0.0 | 0.00 | 0.00 | 0.00 | 43 | 1007.0 |
| 20260502194241 | 94 | 90 | 7.0 | 0.0 | 0.00 | 0.00 | 0.00 | 44 | 1008.0 |
| 20260502193241 | 92 | 90 | 7.0 | 0.0 | 0.00 | 0.00 | 0.00 | 48 | 1008.0 |
| 20260502192241 | 92 | 90 | 7.0 | 0.0 | 0.00 | 0.00 | 0.00 | 48 | 1009.0 |
| 20260502191240 | 92 | 90 | 7.0 | 0.0 | 0.00 | 0.00 | 0.00 | 48 | 1009.0 |
| 20260502190240 | 92 | 90 | 7.0 | 0.0 | 0.00 | 0.00 | 0.00 | 48 | 1009.0 |
| 20260502185239 | 92 | 90 | 7.0 | 0.0 | 0.00 | 0.00 | 0.00 | 49 | 1009.0 |
| 20260502184239 | 92 | 90 | 7.0 | 0.0 | 0.00 | 0.00 | 0.00 | 50 | 1009.0 |
| 20260502183239 | 90 | 90 | 7.0 | 0.0 | 0.00 | 0.00 | 0.00 | 53 | 1009.0 |
| 20260502182238 | 90 | 90 | 7.0 | 0.0 | 0.00 | 0.00 | 0.00 | 53 | 1010.0 |
| 20260502181238 | 90 | 90 | 7.0 | 0.0 | 0.00 | 0.00 | 0.00 | 53 | 1010.0 |
| 20260502180238 | 90 | 90 | 7.0 | 0.0 | 0.00 | 0.00 | 0.00 | 53 | 1010.0 |
| 20260502170236 | 88 | 90 | 7.0 | 0.0 | 0.00 | 0.00 | 0.00 | 56 | 1011.0 |
| 20260502164235 | 87 | 90 | 7.0 | 0.0 | 0.00 | 0.00 | 0.00 | 59 | 1011.0 |
| 20260502163235 | 86 | 90 | 7.0 | 0.0 | 0.00 | 0.00 | 0.00 | 63 | 1011.0 |
| 20260502162234 | 84 | 90 | 7.0 | 0.0 | 0.00 | 0.00 | 0.00 | 69 | 1012.0 |
| 20260502161234 | 85 | 90 | 7.0 | 0.0 | 0.00 | 0.00 | 0.00 | 69 | 1012.0 |
| 20260502160234 | 84 | 90 | 7.0 | 0.0 | 0.00 | 0.00 | 0.00 | 69 | 1012.0 |
| 20260502152233 | 83 | 90 | 7.0 | 0.0 | 0.00 | 0.00 | 0.00 | 72 | 1012.0 |
| 20260502151232 | 81 | 90 | 7.0 | 0.0 | 0.00 | 0.00 | 0.00 | 72 | 1012.0 |
| 20260502150232 | 82 | 90 | 7.8 | 0.0 | 0.00 | 0.00 | 0.00 | 72 | 1012.0 |
| 20260502130228 | 76 | 140 | 9.6 | 0.0 | 0.00 | 0.00 | 0.00 | 85 | 1011.0 |
| 20260502123227 | 76 | 140 | 9.6 | 0.0 | 0.00 | 0.00 | 0.00 | 86 | 1012.0 |
| 20260502122227 | 76 | 140 | 9.6 | 0.0 | 0.00 | 0.00 | 0.00 | 87 | 1011.0 |
| 20260502121227 | 76 | 140 | 9.6 | 0.0 | 0.00 | 0.00 | 0.00 | 87 | 1011.0 |
| 20260502120226 | 76 | 140 | 9.6 | 0.0 | 0.00 | 0.00 | 0.00 | 87 | 1011.0 |
| 20260502115226 | 76 | 140 | 9.6 | 0.0 | 0.00 | 0.00 | 0.00 | 87 | 1011.0 |
| 20260502114226 | 76 | 140 | 9.6 | 0.0 | 0.00 | 0.00 | 0.00 | 87 | 1011.0 |
| 20260502113225 | 76 | 140 | 9.6 | 0.0 | 0.00 | 0.00 | 0.00 | 87 | 1011.0 |
| 20260502112225 | 76 | 140 | 9.6 | 0.0 | 0.00 | 0.00 | 0.00 | 87 | 1010.0 |
| 20260502111225 | 75 | 140 | 9.6 | 0.0 | 0.00 | 0.00 | 0.00 | 87 | 1010.0 |
| 20260502110224 | 76 | 140 | 9.6 | 0.0 | 0.00 | 0.00 | 0.00 | 87 | 1010.0 |
| 20260502105223 | 76 | 140 | 9.6 | 0.0 | 0.00 | 0.00 | 0.00 | 87 | 1010.0 |
| 20260502104223 | 76 | 140 | 9.6 | 0.0 | 0.00 | 0.00 | 0.00 | 87 | 1010.0 |
| 20260502103223 | 76 | 140 | 9.6 | 0.0 | 0.00 | 0.00 | 0.00 | 87 | 1010.0 |
| 20260502102223 | 76 | 140 | 9.6 | 0.0 | 0.00 | 0.00 | 0.00 | 87 | 1010.0 |
| 20260502101222 | 76 | 140 | 9.6 | 0.0 | 0.00 | 0.00 | 0.00 | 87 | 1010.0 |
| 20260502100222 | 76 | 140 | 9.6 | 0.0 | 0.00 | 0.00 | 0.00 | 87 | 1010.0 |
| 20260502091221 | 76 | 140 | 9.6 | 0.0 | 0.00 | 0.00 | 0.00 | 85 | 1010.0 |
| 20260502090220 | 76 | 140 | 9.6 | 0.0 | 0.00 | 0.00 | 0.00 | 85 | 1010.0 |
| 20260502071217 | 79 | 140 | 9.6 | 0.0 | 0.00 | 0.00 | 0.00 | 81 | 1010.0 |
| 20260502070216 | 79 | 140 | 9.6 | 0.0 | 0.00 | 0.00 | 0.00 | 81 | 1010.0 |
| 20260502065216 | 79 | 140 | 9.6 | 0.0 | 0.00 | 0.00 | 0.00 | 81 | 1010.0 |
| 20260502064215 | 79 | 140 | 9.6 | 0.0 | 0.00 | 0.00 | 0.00 | 80 | 1010.0 |
| 20260502063215 | 79 | 140 | 9.6 | 0.0 | 0.00 | 0.00 | 0.00 | 79 | 1010.0 |
| 20260502062214 | 80 | 140 | 9.6 | 0.0 | 0.00 | 0.00 | 0.00 | 79 | 1011.0 |
| 20260502061214 | 80 | 140 | 9.6 | 0.0 | 0.00 | 0.00 | 0.00 | 79 | 1011.0 |
| 20260502060214 | 80 | 140 | 9.6 | 0.0 | 0.00 | 0.00 | 0.00 | 79 | 1011.0 |
| 20260502055213 | 80 | 140 | 9.6 | 0.0 | 0.00 | 0.00 | 0.00 | 78 | 1011.0 |
| 20260502054213 | 80 | 140 | 9.6 | 0.0 | 0.00 | 0.00 | 0.00 | 76 | 1011.0 |
| 20260502053213 | 81 | 140 | 9.6 | 0.0 | 0.00 | 0.00 | 0.00 | 76 | 1011.0 |
| 20260502052213 | 80 | 140 | 9.6 | 0.0 | 0.00 | 0.00 | 0.00 | 76 | 1011.0 |
| 20260502051212 | 79 | 140 | 9.6 | 0.0 | 0.00 | 0.00 | 0.00 | 76 | 1011.0 |
| 20260502050212 | 80 | 140 | 9.6 | 0.0 | 0.00 | 0.00 | 0.00 | 76 | 1011.0 |
| 20260502045212 | 80 | 140 | 9.6 | 0.0 | 0.00 | 0.00 | 0.00 | 76 | 1011.0 |
| 20260502044211 | 80 | 140 | 9.6 | 0.0 | 0.00 | 0.00 | 0.00 | 75 | 1011.0 |
| 20260502043211 | 80 | 140 | 9.6 | 0.0 | 0.00 | 0.00 | 0.00 | 74 | 1011.0 |
| 20260502042211 | 80 | 140 | 9.6 | 0.0 | 0.00 | 0.00 | 0.00 | 73 | 1011.0 |
| 20260502041211 | 80 | 140 | 9.6 | 0.0 | 0.00 | 0.00 | 0.00 | 72 | 1011.0 |
| 20260502040210 | 81 | 140 | 9.6 | 0.0 | 0.00 | 0.00 | 0.00 | 72 | 1011.0 |
| 20260502035210 | 81 | 140 | 9.6 | 0.0 | 0.00 | 0.00 | 0.00 | 72 | 1011.0 |
| 20260502034210 | 81 | 140 | 9.6 | 0.0 | 0.00 | 0.00 | 0.00 | 72 | 1010.0 |
| 20260502033210 | 81 | 140 | 9.6 | 0.0 | 0.00 | 0.00 | 0.00 | 72 | 1010.0 |
| 20260502032209 | 81 | 140 | 9.6 | 0.0 | 0.00 | 0.00 | 0.00 | 72 | 1010.0 |
| 20260502031209 | 81 | 140 | 9.6 | 0.0 | 0.00 | 0.00 | 0.00 | 72 | 1010.0 |
| 20260502030209 | 81 | 140 | 9.6 | 0.0 | 0.00 | 0.00 | 0.00 | 72 | 1010.0 |
| 20260502025209 | 81 | 140 | 9.6 | 0.0 | 0.00 | 0.00 | 0.00 | 71 | 1010.0 |
| 20260502024208 | 81 | 140 | 9.6 | 0.0 | 0.00 | 0.00 | 0.00 | 71 | 1010.0 |
| 20260502023208 | 82 | 140 | 9.6 | 0.0 | 0.00 | 0.00 | 0.00 | 70 | 1010.0 |
| 20260502022207 | 82 | 140 | 9.6 | 0.0 | 0.00 | 0.00 | 0.00 | 70 | 1009.0 |
| 20260502021207 | 82 | 140 | 9.6 | 0.0 | 0.00 | 0.00 | 0.00 | 70 | 1009.0 |
| 20260502020207 | 83 | 140 | 9.6 | 0.0 | 0.00 | 0.00 | 0.00 | 70 | 1009.0 |
| 20260502015206 | 83 | 140 | 9.6 | 0.0 | 0.00 | 0.00 | 0.00 | 71 | 1009.0 |
| 20260502014206 | 83 | 140 | 9.6 | 0.0 | 0.00 | 0.00 | 0.00 | 71 | 1009.0 |
| 20260502013206 | 83 | 140 | 9.6 | 0.0 | 0.00 | 0.00 | 0.00 | 70 | 1009.0 |
| 20260502012205 | 83 | 140 | 9.6 | 0.0 | 0.00 | 0.00 | 0.00 | 69 | 1008.0 |
| 20260502011205 | 83 | 140 | 9.6 | 0.0 | 0.00 | 0.00 | 0.00 | 69 | 1008.0 |
| 20260502010205 | 83 | 140 | 9.6 | 0.0 | 0.00 | 0.00 | 0.00 | 69 | 1008.0 |
| 20260502005204 | 83 | 140 | 9.6 | 0.0 | 0.00 | 0.00 | 0.00 | 68 | 1008.0 |
| 20260502004205 | 84 | 140 | 9.6 | 0.0 | 0.00 | 0.00 | 0.00 | 67 | 1008.0 |
| 20260502003204 | 85 | 140 | 9.6 | 0.0 | 0.00 | 0.00 | 0.00 | 66 | 1008.0 |
| 20260502002204 | 85 | 140 | 9.6 | 0.0 | 0.00 | 0.00 | 0.00 | 66 | 1007.0 |
| 20260502001203 | 85 | 100 | 9.6 | 0.0 | 0.00 | 0.00 | 0.00 | 66 | 1007.0 |
| 20260502000204 | 85 | 100 | 9.6 | 0.0 | 0.00 | 0.00 | 0.00 | 66 | 1007.0 |
| 20260501235202 | 85 | 100 | 9.6 | 0.0 | 0.00 | 0.00 | 0.00 | 66 | 1007.0 |
| 20260501234202 | 85 | 100 | 9.6 | 0.0 | 0.00 | 0.00 | 0.00 | 66 | 1007.0 |